Flight Track Log - Related Links

Times and Time Zones

All times are in EST time to prevent confusion due to time zone crossing. See the BOE2 flight status page for this flight to view local times or setup timezone preferences in your user account.

Time Position Orientation Groundspeed Altitude Reporting Facility
EST Latitude Longitude Course Direction KTS MPH feet Rate Location/Type
Thu 11:06:17 AM 47.8939 -122.2867 174° South 162 186 1,800  Level Seattle Center
Thu 11:06:30 AM 47.8844 -122.2853 174° South 161 185 2,300 2,704 Climbing Seattle Center
Thu 11:07:28 AM 47.8353 -122.2886 183° South 197 227 5,000 3,100 Climbing Seattle Center
Thu 11:07:30 AM 47.8308 -122.2919 207° Southwest 213 245 5,400 3,344 Climbing Seattle Center
Thu 11:08:29 AM 47.7944 -122.3533 229° Southwest 224 258 8,400 3,150 Climbing Seattle Center
Thu 11:09:30 AM 47.7950 -122.4594 270° West 281 323 11,700 3,443 Climbing Seattle Center
Thu 11:10:31 AM 47.8025 -122.5661 276° West 277 319 15,400 2,410 Climbing Seattle Center
Thu 11:11:32 AM 47.8322 -122.6819 291° West 299 344 16,600 2,592 Climbing Seattle Center
Thu 11:13:20 AM 47.8500 -122.9333 276° West 320 368 22,700 2,964 Climbing Vancouver Center
Thu 11:14:20 AM 47.8667 -123.0833 279° West 330 380 24,900 1,550 Climbing Vancouver Center
Thu 11:15:20 AM 47.8667 -123.2000 270° West 360 414 25,800 1,000 Climbing Vancouver Center
Thu 11:16:20 AM 47.8833 -123.3833 278° West 380 437 26,900 1,100 Climbing Vancouver Center
Thu 11:17:20 AM 47.9000 -123.5333 279° West 390 449 28,000 1,100 Climbing Vancouver Center
Thu 11:18:20 AM 47.9333 -123.7000 287° West 410 472 29,100 1,150 Climbing Vancouver Center
Thu 11:19:20 AM 47.9667 -123.8667 287° West 440 506 30,300 1,150 Climbing Vancouver Center
Thu 11:20:20 AM 48.0000 -124.0500 285° West 440 506 31,400 1,100 Climbing Vancouver Center
Thu 11:21:20 AM 48.0500 -124.2167 294° West 450 518 32,500 1,300 Climbing Vancouver Center
Thu 11:22:20 AM 48.1667 -124.3333 326° Northwest 460 529 34,000 1,700 Climbing Vancouver Center
Thu 11:23:20 AM 48.2833 -124.2833 16° North 480 552 35,900 1,900 Climbing Vancouver Center
Thu 11:24:20 AM 48.3833 -124.1333 45° Northeast 480 552 37,800 1,150 Climbing Vancouver Center
Thu 11:25:20 AM 48.3667 -123.9333 97° East 500 575 38,200 600 Climbing Vancouver Center
Thu 11:26:20 AM 48.3333 -123.7167 103° East 520 598 39,000 400 Climbing Vancouver Center
Thu 11:27:20 AM 48.3167 -123.5167 97° East 510 587 39,000  Level Vancouver Center
Thu 11:28:20 AM 48.2833 -123.3000 103° East 510 587 39,000  Level Vancouver Center
Thu 11:29:20 AM 48.2667 -123.1000 97° East 520 598 39,000  Level Vancouver Center
Thu 11:29:50 AM 48.2758 -122.9886 83° East 515 593 39,000  Level Seattle Center
Thu 11:30:51 AM 48.2519 -122.7694 99° East 526 605 39,000  Level Seattle Center
Thu 11:31:52 AM 48.2283 -122.5511 99° East 529 609 39,000  Level Seattle Center
Thu 11:32:53 AM 48.2028 -122.3344 100° East 527 606 39,000  Level Seattle Center
Thu 11:33:54 AM 48.1500 -122.1319 111° Southeast 521 600 39,000  Level Seattle Center
Thu 11:34:55 AM 48.1219 -121.9147 101° East 531 611 39,000  Level Seattle Center
Thu 11:35:56 AM 48.1072 -121.6964 96° East 527 606 39,000  Level Seattle Center
Thu 11:36:57 AM 48.0964 -121.4747 94° East 530 610 39,000  Level Seattle Center
Thu 11:37:58 AM 48.0842 -121.2550 95° East 531 611 39,000  Level Seattle Center
Thu 11:38:59 AM 48.0719 -121.0331 95° East 535 616 39,000  Level Seattle Center
Thu 11:40:00 AM 48.0600 -120.7828 94° East 533 613 39,000  Level Seattle Center
Thu 11:41:01 AM 48.0433 -120.5653 96° East 529 609 39,000  Level Seattle Center
Thu 11:42:02 AM 48.0336 -120.3469 94° East 528 608 39,000 -49 Level Seattle Center
Thu 11:43:03 AM 48.0217 -120.1300 95° East 527 606 38,900  Descending Seattle Center
Thu 11:44:04 AM 48.0061 -119.9153 96° East 524 603 39,000  Climbing Seattle Center
Thu 11:45:05 AM 47.9925 -119.7003 95° East 523 602 38,900 -49 Descending Seattle Center
Thu 11:46:06 AM 47.9789 -119.4856 95° East 522 601 38,900 49 Level Seattle Center
Thu 11:47:07 AM 47.9631 -119.2708 96° East 522 601 39,000  Climbing Seattle Center
Thu 11:48:08 AM 47.9478 -119.0558 96° East 523 602 38,900  Descending Seattle Center
Thu 11:49:09 AM 47.9317 -118.8406 96° East 523 602 39,000 49 Climbing Seattle Center
Thu 11:50:10 AM 47.9167 -118.6242 96° East 525 604 39,000  Level Seattle Center
Thu 11:51:11 AM 47.8997 -118.4114 97° East 520 598 39,000  Level Seattle Center
Thu 11:52:12 AM 47.8797 -118.1536 97° East 521 600 39,000  Level Seattle Center
Thu 11:53:13 AM 47.8625 -117.9386 97° East 524 603 39,000  Level Seattle Center
Thu 11:54:14 AM 47.8447 -117.7233 97° East 524 603 39,000  Level Seattle Center
Thu 11:55:15 AM 47.8264 -117.5072 97° East 524 603 39,000  Level Seattle Center
Thu 11:56:16 AM 47.8092 -117.2903 97° East 526 605 39,000 -49 Level Seattle Center
Thu 11:57:17 AM 47.7900 -117.0706 97° East 527 606 38,900  Descending Seattle Center
Thu 11:58:18 AM 47.7692 -116.8503 98° East 528 608 39,000  Climbing Seattle Center
Thu 11:59:19 AM 47.7486 -116.6322 98° East 529 609 38,900  Descending Seattle Center
Thu 12:00:20 PM 47.7281 -116.4144 98° East 530 610 39,000 49 Climbing Seattle Center
Thu 12:01:21 PM 47.7081 -116.1983 98° East 529 609 39,000  Level Seattle Center
Thu 12:02:21 PM 47.6825 -115.9833 100° East 528 608 39,000 -50 Level Seattle Center
Thu 12:03:22 PM 47.5731 -115.8619 143° Southeast 499 574 38,900 -49 Descending Seattle Center
Thu 12:04:23 PM 47.4436 -115.8747 184° South 473 544 38,900 49 Level Seattle Center
Thu 12:05:24 PM 47.3636 -116.0008 227° Southwest 445 512 39,000 49 Climbing Seattle Center
Thu 12:06:25 PM 47.4061 -116.1636 291° West 445 512 39,000  Level Seattle Center
Thu 12:07:26 PM 47.4778 -116.3117 306° West 446 513 39,000  Level Seattle Center
Thu 12:08:27 PM 47.5525 -116.4572 307° West 447 514 39,000  Level Seattle Center
Thu 12:09:28 PM 47.6231 -116.6083 305° West 449 517 39,000  Level Seattle Center
Thu 12:10:29 PM 47.7067 -116.7817 306° West 440 506 39,000  Level Seattle Center
Thu 12:11:30 PM 47.7650 -116.9311 300° West 443 510 39,000  Level Seattle Center
Thu 12:12:30 PM 47.7828 -117.1067 279° West 440 506 39,000 -50 Level Seattle Center
Thu 12:13:31 PM 47.7975 -117.2844 277° West 440 506 38,900 -49 Descending Seattle Center
Thu 12:14:32 PM 47.8144 -117.4658 278° West 445 512 38,900  Level Seattle Center
Thu 12:15:33 PM 47.8300 -117.6475 277° West 446 513 38,900 49 Level Seattle Center
Thu 12:16:34 PM 47.8456 -117.8286 277° West 445 512 39,000 49 Climbing Seattle Center
Thu 12:17:35 PM 47.8611 -118.0122 277° West 448 516 39,000  Level Seattle Center
Thu 12:18:36 PM 47.8789 -118.2333 277° West 451 519 39,000  Level Seattle Center
Thu 12:19:36 PM 47.8936 -118.4189 277° West 453 521 39,000 -50 Level Seattle Center
Thu 12:20:37 PM 47.9086 -118.6036 277° West 452 520 38,900  Descending Seattle Center
Thu 12:21:38 PM 47.9225 -118.7894 276° West 453 521 39,000  Climbing Seattle Center
Thu 12:22:39 PM 47.9375 -118.9733 277° West 449 517 38,900 -49 Descending Seattle Center
Thu 12:23:40 PM 47.9497 -119.1583 276° West 450 518 38,900 49 Level Seattle Center
Thu 12:24:41 PM 47.9636 -119.3447 276° West 454 522 39,000  Climbing Seattle Center
Thu 12:25:41 PM 47.9769 -119.5297 276° West 454 522 38,900  Descending Seattle Center
Thu 12:26:42 PM 47.9897 -119.7144 276° West 450 518 39,000 49 Climbing Seattle Center
Thu 12:27:43 PM 48.0031 -119.8978 276° West 448 516 39,000  Level Seattle Center
Thu 12:28:44 PM 48.0131 -120.0814 275° West 446 513 39,000 -49 Level Seattle Center
Thu 12:29:45 PM 48.0267 -120.2639 276° West 445 512 38,900  Descending Seattle Center
Thu 12:30:46 PM 48.0372 -120.4442 275° West 441 507 39,000  Climbing Seattle Center
Thu 12:31:47 PM 48.0528 -120.6247 277° West 440 506 38,900 -50 Descending Seattle Center
Thu 12:32:47 PM 48.0647 -120.8447 275° West 444 511 38,900 50 Level Seattle Center
Thu 12:33:48 PM 48.0722 -121.0017 274° West 443 510 39,000 49 Climbing Seattle Center
Thu 12:34:49 PM 48.0850 -121.2219 275° West 444 511 39,000  Level Seattle Center
Thu 12:35:50 PM 48.0944 -121.4064 274° West 448 516 39,000  Level Seattle Center
Thu 12:36:51 PM 48.1044 -121.5900 275° West 447 514 39,000  Level Seattle Center
Thu 12:37:52 PM 48.1314 -121.7692 283° West 458 527 39,000  Level Seattle Center
Thu 12:38:53 PM 48.2356 -121.8733 326° Northwest 473 544 39,000  Level Seattle Center
Thu 12:39:54 PM 48.3633 -121.8183 16° North 496 571 39,000  Level Seattle Center
Thu 12:40:54 PM 48.4169 -121.6289 67° East 511 588 39,000  Level Seattle Center
Thu 12:42:44 PM 48.2500 -121.3167 129° Southeast 500 575 39,000  Level Vancouver Center
Thu 12:43:44 PM 48.1333 -121.1667 139° Southeast 500 575 39,000  Level Vancouver Center
Thu 12:44:44 PM 48.0500 -121.0333 133° Southeast 500 575 39,000  Level Vancouver Center
Thu 12:45:44 PM 48.0500 -120.8000 90° East 520 598 39,000  Level Vancouver Center
Thu 12:46:44 PM 48.0333 -120.6000 97° East 520 598 39,000  Level Vancouver Center
Thu 12:47:44 PM 48.0167 -120.3833 96° East 510 587 39,000 -700 Level Vancouver Center
Thu 12:48:44 PM 48.0167 -120.1500 90° East 510 587 37,600 -2,500 Descending Vancouver Center
Thu 12:49:44 PM 47.9833 -119.9667 105° East 490 564 34,000 -2,650 Descending Vancouver Center
Thu 12:50:44 PM 47.9167 -119.8667 135° Southeast 410 472 32,300 -1,886 Descending Vancouver Center
Thu 12:52:04 PM 47.8111 -119.8522 175° South 362 417 29,600 -1,872 Descending Seattle Center
Thu 12:53:05 PM 47.7150 -119.8300 171° South 355 409 27,900 -1,721 Descending Seattle Center
Thu 12:54:06 PM 47.6219 -119.8117 172° South 343 395 26,100 -1,279 Descending Seattle Center
Thu 12:55:07 PM 47.5283 -119.7928 172° South 342 394 25,300 -595 Descending Seattle Center
Thu 12:56:07 PM 47.4364 -119.7719 171° South 337 388 24,900 -149 Descending Seattle Center
Thu 12:57:08 PM 47.3444 -119.7531 172° South 336 387 25,000  Climbing Seattle Center
Thu 12:58:09 PM 47.2517 -119.7317 171° South 337 388 24,900 -246 Descending Seattle Center
Thu 12:59:10 PM 47.1608 -119.7103 171° South 333 383 24,500 -443 Descending Seattle Center
Thu 01:00:11 PM 47.0531 -119.6817 170° South 329 379 24,000 -590 Descending Seattle Center
Thu 01:01:12 PM 46.9694 -119.6589 169° South 312 359 23,300 -1,082 Descending Seattle Center
Thu 01:02:13 PM 46.8917 -119.5961 151° Southeast 321 369 21,800 -934 Descending Seattle Center
Thu 01:03:14 PM 46.8122 -119.5206 147° Southeast 337 388 21,400 -1,339 Descending Seattle Center
Thu 01:04:14 PM 46.7314 -119.4439 147° Southeast 334 384 19,100 -2,479 Descending Seattle Center
Thu 01:05:15 PM 46.6464 -119.3614 146° Southeast 370 426 16,400 -2,016 Descending Seattle Center
Thu 01:06:16 PM 46.6308 -119.2114 99° East 385 443 15,000 -689 Descending Seattle Center
Thu 01:07:17 PM 46.6408 -119.0725 84° East 347 399 15,000 197 Level Seattle Center
Thu 01:08:18 PM 46.6642 -118.9342 76° East 375 432 15,400 738 Climbing Seattle Center
Thu 01:09:19 PM 46.7700 -118.9047 11° North 354 407 16,500 1,041 Climbing Seattle Center
Thu 01:10:19 PM 46.8522 -118.9028 North 357 411 17,500 744 Climbing Seattle Center
Thu 01:11:20 PM 46.9294 -118.9550 335° Northwest 334 384 18,000 195 Climbing Seattle Center
Thu 01:12:22 PM 46.9522 -119.0639 287° West 295 339 17,900  Descending Seattle Center
Thu 01:13:22 PM 46.9772 -119.1975 285° West 286 329 18,000 50 Climbing Seattle Center
Thu 01:14:23 PM 46.9322 -119.2642 225° Southwest 288 331 18,000  Level Seattle Center
Thu 01:15:24 PM 46.8542 -119.2350 166° South 291 335 18,000 98 Level Seattle Center
Thu 01:16:25 PM 46.7847 -119.1694 147° Southeast 296 341 18,200 148 Climbing Seattle Center
Thu 01:17:26 PM 46.7322 -119.1033 139° Southeast 256 295 18,300 49 Climbing Seattle Center
Thu 01:18:27 PM 46.6881 -119.0569 144° Southeast 214 246 18,300 -49 Level Seattle Center
Thu 01:19:28 PM 46.6508 -119.0353 158° South 161 185 18,200 -197 Descending Seattle Center
Thu 01:20:29 PM 46.6181 -119.0122 154° Southeast 135 155 17,900 -98 Descending Seattle Center
Thu 01:21:30 PM 46.5742 -118.9842 156° South 151 174 18,000 49 Climbing Seattle Center
Thu 01:22:31 PM 46.5189 -118.9153 139° Southeast 229 264 18,000 -49 Level Seattle Center
Thu 01:23:32 PM 46.4608 -118.8492 142° Southeast 262 302 17,900 -49 Descending Seattle Center
Thu 01:24:33 PM 46.4292 -118.9008 228° Southwest 231 266 17,900  Level Seattle Center
Thu 01:25:34 PM 46.5019 -118.9392 340° North 284 327 17,900  Level Seattle Center
Thu 01:26:34 PM 46.5797 -118.9761 342° North 295 339 17,900  Level Seattle Center
Thu 01:27:35 PM 46.6597 -119.0119 343° North 301 346 17,900  Level Seattle Center
Thu 01:28:36 PM 46.7350 -119.0444 344° North 284 327 17,900  Level Seattle Center
Thu 01:29:37 PM 46.8042 -119.0686 347° North 216 249 17,900  Level Seattle Center
Thu 01:30:38 PM 46.8572 -119.0858 347° North 196 226 17,900  Level Seattle Center
Thu 01:31:39 PM 46.8536 -119.1167 260° West 150 173 17,900  Level Seattle Center
Thu 01:32:40 PM 46.8161 -119.1189 182° South 134 154 17,900 49 Level Seattle Center
Thu 01:33:41 PM 46.7597 -119.0950 164° South 198 228 18,000  Climbing Seattle Center
Thu 01:34:42 PM 46.6892 -119.0675 165° South 254 292 17,900 -443 Descending Seattle Center
Thu 01:35:43 PM 46.6217 -119.0411 165° South 255 293 17,100 -836 Descending Seattle Center
Thu 01:36:44 PM 46.5569 -119.0131 163° South 243 280 16,200 -885 Descending Seattle Center
Thu 01:37:45 PM 46.4942 -118.9853 163° South 235 270 15,300 -984 Descending Seattle Center
Thu 01:39:00 PM 46.1890 -118.9656 177° South  Level FlightAware Approximate
Thu 01:39:47 PM 46.3717 -118.9311 177° South 229 264 13,200  Level Seattle Center
Thu 01:40:48 PM 46.3103 -118.9064 164° South 228 262 12,400 -984 Descending Seattle Center
Thu 01:41:49 PM 46.2431 -118.8819 166° South 221 254 11,200 -689 Descending Seattle Center
Thu 01:42:50 PM 46.1778 -118.8611 168° South 224 258 11,000 -98 Descending Seattle Center
Thu 01:43:51 PM 46.1169 -118.8433 169° South 223 257 11,000  Level Seattle Center
Thu 01:44:52 PM 46.0869 -118.7742 122° Southeast 270 311 11,000 -246 Level Seattle Center
Thu 01:45:53 PM 46.1594 -118.7556 10° North 284 327 10,500 -738 Descending Seattle Center
Thu 01:46:54 PM 46.2383 -118.7742 351° North 275 316 9,500 -885 Descending Seattle Center
Thu 01:47:55 PM 46.2972 -118.8039 341° North 258 297 8,700 -984 Descending Seattle Center
Thu 01:48:56 PM 46.3650 -118.8422 339° North 260 299 7,500 -1,279 Descending Seattle Center
Thu 01:49:57 PM 46.4489 -118.8900 339° North 273 314 6,100 -738 Descending Seattle Center
Thu 01:50:58 PM 46.5108 -118.9267 338° Northwest 277 319 6,000 -49 Descending Seattle Center
Thu 01:51:59 PM 46.5836 -118.9683 339° North 284 327 6,000  Level Seattle Center
Thu 01:53:00 PM 46.6525 -119.0183 334° Northwest 277 319 6,000  Level Seattle Center
Thu 01:54:01 PM 46.7353 -119.0789 333° Northwest 278 320 6,000  Level Seattle Center

Login

Don't have an account? Register now (free) for customized features, flight alerts, and more!